Terminal Aerodrome Forecast
Issued by NWS

Home | Current Version | Previous Version | Graphics & Text | Print | Product List | Glossary On
Versions: 1 2 3 4 5 6 7 8 9 10 11 12 13 14 15 16
000
FTUS43 KMPX 202338
TAFRNH
TAF
KRNH 202338Z 2100/2124 30020G29KT P6SM OVC035
     FM210300 29014G24KT P6SM VCSH OVC025
     FM211500 29022G32KT P6SM VCSH OVC030
     FM212200 29019G28KT P6SM OVC040=

USA.gov is the U.S. government's official web portal to all federal, state and local government web resources and services.